sensor_id;sensor_type;location;lat;lon;timestamp;P1;durP1;ratioP1;P2;durP2;ratioP2
27977;SDS011;15314;49.248;6.968;2023-11-21T00:00:48;8.02;;;7.43;;
27977;SDS011;15314;49.248;6.968;2023-11-21T00:01:49;9.60;;;7.40;;
27977;SDS011;15314;49.248;6.968;2023-11-21T00:02:49;8.68;;;7.50;;
27977;SDS011;15314;49.248;6.968;2023-11-21T00:03:50;8.07;;;7.47;;
27977;SDS011;15314;49.248;6.968;2023-11-21T00:04:50;7.70;;;7.15;;
27977;SDS011;15314;49.248;6.968;2023-11-21T00:05:52;7.72;;;7.13;;
27977;SDS011;15314;49.248;6.968;2023-11-21T00:06:53;7.57;;;6.97;;
27977;SDS011;15314;49.248;6.968;2023-11-21T00:07:54;7.15;;;6.63;;
27977;SDS011;15314;49.248;6.968;2023-11-21T00:08:55;8.20;;;7.32;;
27977;SDS011;15314;49.248;6.968;2023-11-21T00:09:55;7.60;;;7.07;;
27977;SDS011;15314;49.248;6.968;2023-11-21T00:10:56;8.00;;;7.32;;
27977;SDS011;15314;49.248;6.968;2023-11-21T00:11:57;7.85;;;7.35;;
27977;SDS011;15314;49.248;6.968;2023-11-21T00:12:59;9.05;;;8.07;;
27977;SDS011;15314;49.248;6.968;2023-11-21T00:13:59;8.00;;;7.20;;
27977;SDS011;15314;49.248;6.968;2023-11-21T00:15:00;7.63;;;7.13;;
27977;SDS011;15314;49.248;6.968;2023-11-21T00:16:01;7.75;;;7.05;;
27977;SDS011;15314;49.248;6.968;2023-11-21T00:17:02;8.30;;;7.65;;
27977;SDS011;15314;49.248;6.968;2023-11-21T00:18:03;7.32;;;7.00;;
27977;SDS011;15314;49.248;6.968;2023-11-21T00:19:03;7.90;;;7.20;;
27977;SDS011;15314;49.248;6.968;2023-11-21T00:20:07;7.65;;;7.22;;
27977;SDS011;15314;49.248;6.968;2023-11-21T00:21:08;7.85;;;7.35;;
27977;SDS011;15314;49.248;6.968;2023-11-21T00:22:09;8.13;;;7.45;;
27977;SDS011;15314;49.248;6.968;2023-11-21T00:23:10;8.05;;;7.55;;
27977;SDS011;15314;49.248;6.968;2023-11-21T00:24:11;8.02;;;7.35;;
27977;SDS011;15314;49.248;6.968;2023-11-21T00:25:13;7.85;;;7.45;;
27977;SDS011;15314;49.248;6.968;2023-11-21T00:26:15;7.60;;;7.18;;
27977;SDS011;15314;49.248;6.968;2023-11-21T00:27:15;7.80;;;7.40;;
27977;SDS011;15314;49.248;6.968;2023-11-21T00:28:16;8.23;;;7.72;;
27977;SDS011;15314;49.248;6.968;2023-11-21T00:29:17;8.30;;;7.80;;
27977;SDS011;15314;49.248;6.968;2023-11-21T00:30:18;7.93;;;7.53;;
27977;SDS011;15314;49.248;6.968;2023-11-21T00:31:20;8.70;;;8.00;;
27977;SDS011;15314;49.248;6.968;2023-11-21T00:32:20;8.15;;;7.68;;
27977;SDS011;15314;49.248;6.968;2023-11-21T00:33:21;8.38;;;7.85;;
27977;SDS011;15314;49.248;6.968;2023-11-21T00:34:22;9.00;;;8.02;;
27977;SDS011;15314;49.248;6.968;2023-11-21T00:35:22;8.70;;;8.10;;
27977;SDS011;15314;49.248;6.968;2023-11-21T00:36:23;8.65;;;7.95;;
27977;SDS011;15314;49.248;6.968;2023-11-21T00:37:24;8.63;;;8.02;;
27977;SDS011;15314;49.248;6.968;2023-11-21T00:38:25;10.40;;;8.00;;
27977;SDS011;15314;49.248;6.968;2023-11-21T00:39:25;8.98;;;8.35;;
27977;SDS011;15314;49.248;6.968;2023-11-21T00:40:26;8.57;;;7.97;;
27977;SDS011;15314;49.248;6.968;2023-11-21T00:41:26;8.60;;;8.07;;
27977;SDS011;15314;49.248;6.968;2023-11-21T00:42:27;9.20;;;8.40;;
27977;SDS011;15314;49.248;6.968;2023-11-21T00:43:28;8.68;;;8.07;;
27977;SDS011;15314;49.248;6.968;2023-11-21T00:44:29;8.70;;;8.07;;
27977;SDS011;15314;49.248;6.968;2023-11-21T00:45:29;8.68;;;8.10;;
27977;SDS011;15314;49.248;6.968;2023-11-21T00:46:30;9.68;;;8.65;;
27977;SDS011;15314;49.248;6.968;2023-11-21T00:47:31;9.27;;;8.52;;
27977;SDS011;15314;49.248;6.968;2023-11-21T00:48:32;9.15;;;8.60;;
27977;SDS011;15314;49.248;6.968;2023-11-21T00:49:32;8.82;;;8.23;;
27977;SDS011;15314;49.248;6.968;2023-11-21T00:50:33;9.50;;;8.73;;
27977;SDS011;15314;49.248;6.968;2023-11-21T00:51:34;9.35;;;8.55;;
27977;SDS011;15314;49.248;6.968;2023-11-21T00:52:34;9.40;;;8.70;;
27977;SDS011;15314;49.248;6.968;2023-11-21T00:53:36;9.10;;;8.60;;
27977;SDS011;15314;49.248;6.968;2023-11-21T00:54:36;9.02;;;8.45;;
27977;SDS011;15314;49.248;6.968;2023-11-21T00:55:37;8.98;;;8.43;;
27977;SDS011;15314;49.248;6.968;2023-11-21T00:56:40;9.75;;;8.45;;
27977;SDS011;15314;49.248;6.968;2023-11-21T00:57:40;9.50;;;8.70;;
27977;SDS011;15314;49.248;6.968;2023-11-21T00:58:41;9.68;;;8.98;;
27977;SDS011;15314;49.248;6.968;2023-11-21T00:59:49;9.52;;;8.82;;
27977;SDS011;15314;49.248;6.968;2023-11-21T01:00:50;9.50;;;8.63;;
27977;SDS011;15314;49.248;6.968;2023-11-21T01:01:51;10.07;;;8.90;;
27977;SDS011;15314;49.248;6.968;2023-11-21T01:02:51;9.60;;;8.98;;
27977;SDS011;15314;49.248;6.968;2023-11-21T01:03:52;9.48;;;8.68;;
27977;SDS011;15314;49.248;6.968;2023-11-21T01:04:54;9.50;;;8.80;;
27977;SDS011;15314;49.248;6.968;2023-11-21T01:05:54;9.52;;;8.63;;
27977;SDS011;15314;49.248;6.968;2023-11-21T01:06:55;9.48;;;8.90;;
27977;SDS011;15314;49.248;6.968;2023-11-21T01:07:56;9.27;;;8.60;;
27977;SDS011;15314;49.248;6.968;2023-11-21T01:08:56;9.23;;;8.50;;
27977;SDS011;15314;49.248;6.968;2023-11-21T01:09:57;10.13;;;9.43;;
27977;SDS011;15314;49.248;6.968;2023-11-21T01:10:57;9.32;;;8.75;;
27977;SDS011;15314;49.248;6.968;2023-11-21T01:11:58;10.00;;;9.07;;
27977;SDS011;15314;49.248;6.968;2023-11-21T01:12:59;9.52;;;8.80;;
27977;SDS011;15314;49.248;6.968;2023-11-21T01:14:00;9.75;;;9.00;;
27977;SDS011;15314;49.248;6.968;2023-11-21T01:15:01;9.15;;;8.55;;
27977;SDS011;15314;49.248;6.968;2023-11-21T01:16:02;10.20;;;9.18;;
27977;SDS011;15314;49.248;6.968;2023-11-21T01:17:04;9.65;;;9.10;;
27977;SDS011;15314;49.248;6.968;2023-11-21T01:18:05;9.38;;;8.88;;
27977;SDS011;15314;49.248;6.968;2023-11-21T01:19:06;9.55;;;9.02;;
27977;SDS011;15314;49.248;6.968;2023-11-21T01:20:06;9.65;;;9.10;;
27977;SDS011;15314;49.248;6.968;2023-11-21T01:21:12;9.32;;;8.80;;
27977;SDS011;15314;49.248;6.968;2023-11-21T01:22:12;9.07;;;8.38;;
27977;SDS011;15314;49.248;6.968;2023-11-21T01:23:13;9.80;;;9.00;;
27977;SDS011;15314;49.248;6.968;2023-11-21T01:24:14;9.05;;;8.45;;
27977;SDS011;15314;49.248;6.968;2023-11-21T01:25:15;9.93;;;9.15;;
27977;SDS011;15314;49.248;6.968;2023-11-21T01:26:16;9.55;;;8.95;;
27977;SDS011;15314;49.248;6.968;2023-11-21T01:27:16;10.00;;;9.27;;
27977;SDS011;15314;49.248;6.968;2023-11-21T01:28:18;9.50;;;8.90;;
27977;SDS011;15314;49.248;6.968;2023-11-21T01:29:19;9.57;;;8.90;;
27977;SDS011;15314;49.248;6.968;2023-11-21T01:30:20;9.50;;;8.75;;
27977;SDS011;15314;49.248;6.968;2023-11-21T01:31:21;9.32;;;8.57;;
27977;SDS011;15314;49.248;6.968;2023-11-21T01:32:21;8.90;;;8.30;;
27977;SDS011;15314;49.248;6.968;2023-11-21T01:33:22;9.00;;;8.50;;
27977;SDS011;15314;49.248;6.968;2023-11-21T01:34:24;9.68;;;9.00;;
27977;SDS011;15314;49.248;6.968;2023-11-21T01:35:25;9.57;;;8.98;;
27977;SDS011;15314;49.248;6.968;2023-11-21T01:36:32;9.75;;;8.85;;
27977;SDS011;15314;49.248;6.968;2023-11-21T01:37:33;9.65;;;8.75;;
27977;SDS011;15314;49.248;6.968;2023-11-21T01:38:33;9.43;;;8.82;;
27977;SDS011;15314;49.248;6.968;2023-11-21T01:39:34;9.40;;;8.80;;
27977;SDS011;15314;49.248;6.968;2023-11-21T01:40:35;9.60;;;9.00;;
27977;SDS011;15314;49.248;6.968;2023-11-21T01:41:36;9.50;;;8.90;;
27977;SDS011;15314;49.248;6.968;2023-11-21T01:42:37;10.10;;;9.40;;
27977;SDS011;15314;49.248;6.968;2023-11-21T01:43:37;10.63;;;9.90;;
27977;SDS011;15314;49.248;6.968;2023-11-21T01:44:38;10.13;;;9.30;;
27977;SDS011;15314;49.248;6.968;2023-11-21T01:45:39;9.43;;;8.82;;
27977;SDS011;15314;49.248;6.968;2023-11-21T01:46:39;9.88;;;9.07;;
27977;SDS011;15314;49.248;6.968;2023-11-21T01:47:42;9.65;;;8.95;;
27977;SDS011;15314;49.248;6.968;2023-11-21T01:48:44;9.90;;;9.10;;
27977;SDS011;15314;49.248;6.968;2023-11-21T01:49:45;9.80;;;9.00;;
27977;SDS011;15314;49.248;6.968;2023-11-21T01:50:46;10.20;;;9.30;;
27977;SDS011;15314;49.248;6.968;2023-11-21T01:51:47;9.00;;;8.48;;
27977;SDS011;15314;49.248;6.968;2023-11-21T01:52:49;9.85;;;8.95;;
27977;SDS011;15314;49.248;6.968;2023-11-21T01:53:50;10.30;;;9.52;;
27977;SDS011;15314;49.248;6.968;2023-11-21T01:54:51;10.10;;;9.50;;
27977;SDS011;15314;49.248;6.968;2023-11-21T01:55:52;10.10;;;9.25;;
27977;SDS011;15314;49.248;6.968;2023-11-21T01:56:54;9.85;;;9.25;;
27977;SDS011;15314;49.248;6.968;2023-11-21T01:57:55;9.88;;;9.10;;
27977;SDS011;15314;49.248;6.968;2023-11-21T01:58:57;10.55;;;9.70;;
27977;SDS011;15314;49.248;6.968;2023-11-21T01:59:58;10.63;;;9.63;;
27977;SDS011;15314;49.248;6.968;2023-11-21T02:01:01;10.23;;;9.43;;
27977;SDS011;15314;49.248;6.968;2023-11-21T02:02:05;10.30;;;9.70;;
27977;SDS011;15314;49.248;6.968;2023-11-21T02:03:06;10.80;;;10.05;;
27977;SDS011;15314;49.248;6.968;2023-11-21T02:04:07;11.27;;;10.50;;
27977;SDS011;15314;49.248;6.968;2023-11-21T02:05:08;10.40;;;9.80;;
27977;SDS011;15314;49.248;6.968;2023-11-21T02:06:09;10.68;;;9.85;;
27977;SDS011;15314;49.248;6.968;2023-11-21T02:07:10;11.07;;;10.18;;
27977;SDS011;15314;49.248;6.968;2023-11-21T02:08:11;11.30;;;10.40;;
27977;SDS011;15314;49.248;6.968;2023-11-21T02:09:11;10.43;;;9.80;;
27977;SDS011;15314;49.248;6.968;2023-11-21T02:10:15;11.13;;;10.23;;
27977;SDS011;15314;49.248;6.968;2023-11-21T02:11:16;10.95;;;10.15;;
27977;SDS011;15314;49.248;6.968;2023-11-21T02:12:16;10.25;;;9.35;;
27977;SDS011;15314;49.248;6.968;2023-11-21T02:13:17;10.85;;;9.95;;
27977;SDS011;15314;49.248;6.968;2023-11-21T02:14:17;10.45;;;9.60;;
27977;SDS011;15314;49.248;6.968;2023-11-21T02:15:20;10.65;;;9.73;;
27977;SDS011;15314;49.248;6.968;2023-11-21T02:16:21;11.30;;;10.40;;
27977;SDS011;15314;49.248;6.968;2023-11-21T02:17:21;10.85;;;10.13;;
27977;SDS011;15314;49.248;6.968;2023-11-21T02:18:22;12.35;;;11.25;;
27977;SDS011;15314;49.248;6.968;2023-11-21T02:19:23;10.30;;;9.60;;
27977;SDS011;15314;49.248;6.968;2023-11-21T02:20:25;11.75;;;10.88;;
27977;SDS011;15314;49.248;6.968;2023-11-21T02:21:26;11.68;;;10.52;;
27977;SDS011;15314;49.248;6.968;2023-11-21T02:22:29;11.75;;;10.68;;
27977;SDS011;15314;49.248;6.968;2023-11-21T02:23:32;10.80;;;10.10;;
27977;SDS011;15314;49.248;6.968;2023-11-21T02:24:33;12.02;;;11.10;;
27977;SDS011;15314;49.248;6.968;2023-11-21T02:25:34;12.35;;;11.30;;
27977;SDS011;15314;49.248;6.968;2023-11-21T02:26:37;10.73;;;10.05;;
27977;SDS011;15314;49.248;6.968;2023-11-21T02:27:37;10.95;;;10.25;;
27977;SDS011;15314;49.248;6.968;2023-11-21T02:28:38;11.93;;;11.02;;
27977;SDS011;15314;49.248;6.968;2023-11-21T02:29:39;11.77;;;10.85;;
27977;SDS011;15314;49.248;6.968;2023-11-21T02:30:39;10.90;;;10.10;;
27977;SDS011;15314;49.248;6.968;2023-11-21T02:31:40;12.35;;;11.05;;
27977;SDS011;15314;49.248;6.968;2023-11-21T02:32:51;11.95;;;11.00;;
27977;SDS011;15314;49.248;6.968;2023-11-21T02:33:54;12.00;;;10.98;;
27977;SDS011;15314;49.248;6.968;2023-11-21T02:34:55;12.05;;;11.07;;
27977;SDS011;15314;49.248;6.968;2023-11-21T02:35:56;11.18;;;10.38;;
27977;SDS011;15314;49.248;6.968;2023-11-21T02:36:56;11.50;;;10.60;;
27977;SDS011;15314;49.248;6.968;2023-11-21T02:37:57;11.25;;;10.55;;
27977;SDS011;15314;49.248;6.968;2023-11-21T02:38:58;10.93;;;10.23;;
27977;SDS011;15314;49.248;6.968;2023-11-21T02:39:59;11.95;;;11.00;;
27977;SDS011;15314;49.248;6.968;2023-11-21T02:40:59;12.05;;;11.30;;
27977;SDS011;15314;49.248;6.968;2023-11-21T02:42:00;11.63;;;10.77;;
27977;SDS011;15314;49.248;6.968;2023-11-21T02:43:01;12.70;;;11.40;;
27977;SDS011;15314;49.248;6.968;2023-11-21T02:44:01;11.93;;;11.05;;
27977;SDS011;15314;49.248;6.968;2023-11-21T02:45:02;12.50;;;11.43;;
27977;SDS011;15314;49.248;6.968;2023-11-21T02:46:03;12.93;;;11.93;;
27977;SDS011;15314;49.248;6.968;2023-11-21T02:47:04;12.80;;;11.40;;
27977;SDS011;15314;49.248;6.968;2023-11-21T02:48:05;13.00;;;12.10;;
27977;SDS011;15314;49.248;6.968;2023-11-21T02:49:06;12.60;;;11.55;;
27977;SDS011;15314;49.248;6.968;2023-11-21T02:50:07;12.48;;;11.50;;
27977;SDS011;15314;49.248;6.968;2023-11-21T02:51:08;13.10;;;12.05;;
27977;SDS011;15314;49.248;6.968;2023-11-21T02:52:09;13.82;;;12.52;;
27977;SDS011;15314;49.248;6.968;2023-11-21T02:53:09;13.00;;;12.02;;
27977;SDS011;15314;49.248;6.968;2023-11-21T02:54:11;12.70;;;11.63;;
27977;SDS011;15314;49.248;6.968;2023-11-21T02:55:11;12.95;;;11.95;;
27977;SDS011;15314;49.248;6.968;2023-11-21T02:56:12;13.57;;;12.05;;
27977;SDS011;15314;49.248;6.968;2023-11-21T02:57:13;13.20;;;12.20;;
27977;SDS011;15314;49.248;6.968;2023-11-21T02:58:14;14.00;;;12.75;;
27977;SDS011;15314;49.248;6.968;2023-11-21T02:59:15;14.20;;;13.00;;
27977;SDS011;15314;49.248;6.968;2023-11-21T03:00:16;13.77;;;12.60;;
27977;SDS011;15314;49.248;6.968;2023-11-21T03:01:17;14.07;;;13.07;;
27977;SDS011;15314;49.248;6.968;2023-11-21T03:02:17;14.20;;;12.90;;
27977;SDS011;15314;49.248;6.968;2023-11-21T03:03:18;14.55;;;13.20;;
27977;SDS011;15314;49.248;6.968;2023-11-21T03:04:18;14.48;;;13.27;;
27977;SDS011;15314;49.248;6.968;2023-11-21T03:05:19;13.90;;;12.77;;
27977;SDS011;15314;49.248;6.968;2023-11-21T03:06:21;14.68;;;13.27;;
27977;SDS011;15314;49.248;6.968;2023-11-21T03:07:23;13.82;;;12.77;;
27977;SDS011;15314;49.248;6.968;2023-11-21T03:08:24;14.13;;;12.85;;
27977;SDS011;15314;49.248;6.968;2023-11-21T03:09:24;15.85;;;14.45;;
27977;SDS011;15314;49.248;6.968;2023-11-21T03:10:26;14.82;;;13.43;;
27977;SDS011;15314;49.248;6.968;2023-11-21T03:11:27;14.77;;;13.48;;
27977;SDS011;15314;49.248;6.968;2023-11-21T03:12:28;15.10;;;13.60;;
27977;SDS011;15314;49.248;6.968;2023-11-21T03:13:28;14.23;;;13.02;;
27977;SDS011;15314;49.248;6.968;2023-11-21T03:14:29;13.10;;;11.90;;
27977;SDS011;15314;49.248;6.968;2023-11-21T03:15:30;12.77;;;11.65;;
27977;SDS011;15314;49.248;6.968;2023-11-21T03:16:32;12.57;;;11.48;;
27977;SDS011;15314;49.248;6.968;2023-11-21T03:17:33;14.52;;;12.65;;
27977;SDS011;15314;49.248;6.968;2023-11-21T03:18:34;13.23;;;12.20;;
27977;SDS011;15314;49.248;6.968;2023-11-21T03:19:34;13.57;;;12.27;;
27977;SDS011;15314;49.248;6.968;2023-11-21T03:20:35;12.57;;;11.48;;
27977;SDS011;15314;49.248;6.968;2023-11-21T03:21:36;14.25;;;12.85;;
27977;SDS011;15314;49.248;6.968;2023-11-21T03:22:37;13.05;;;11.95;;
27977;SDS011;15314;49.248;6.968;2023-11-21T03:23:38;13.02;;;11.93;;
27977;SDS011;15314;49.248;6.968;2023-11-21T03:24:39;13.85;;;12.65;;
27977;SDS011;15314;49.248;6.968;2023-11-21T03:25:40;13.50;;;12.05;;
27977;SDS011;15314;49.248;6.968;2023-11-21T03:26:41;12.65;;;11.65;;
27977;SDS011;15314;49.248;6.968;2023-11-21T03:27:41;12.85;;;11.75;;
27977;SDS011;15314;49.248;6.968;2023-11-21T03:28:42;12.88;;;11.60;;
27977;SDS011;15314;49.248;6.968;2023-11-21T03:29:43;12.68;;;11.57;;
27977;SDS011;15314;49.248;6.968;2023-11-21T03:30:44;11.75;;;10.80;;
27977;SDS011;15314;49.248;6.968;2023-11-21T03:31:45;12.50;;;11.43;;
27977;SDS011;15314;49.248;6.968;2023-11-21T03:32:46;12.32;;;11.00;;
27977;SDS011;15314;49.248;6.968;2023-11-21T03:33:46;12.38;;;11.40;;
27977;SDS011;15314;49.248;6.968;2023-11-21T03:34:54;11.90;;;10.85;;
27977;SDS011;15314;49.248;6.968;2023-11-21T03:35:56;11.38;;;10.38;;
27977;SDS011;15314;49.248;6.968;2023-11-21T03:36:57;11.90;;;11.07;;
27977;SDS011;15314;49.248;6.968;2023-11-21T03:37:58;12.35;;;11.27;;
27977;SDS011;15314;49.248;6.968;2023-11-21T03:38:59;11.35;;;10.43;;
27977;SDS011;15314;49.248;6.968;2023-11-21T03:39:59;12.18;;;11.20;;
27977;SDS011;15314;49.248;6.968;2023-11-21T03:41:00;11.98;;;10.98;;
27977;SDS011;15314;49.248;6.968;2023-11-21T03:42:01;12.00;;;10.77;;
27977;SDS011;15314;49.248;6.968;2023-11-21T03:43:01;11.68;;;10.88;;
27977;SDS011;15314;49.248;6.968;2023-11-21T03:44:03;10.98;;;10.18;;
27977;SDS011;15314;49.248;6.968;2023-11-21T03:45:04;11.43;;;10.43;;
27977;SDS011;15314;49.248;6.968;2023-11-21T03:46:05;12.20;;;11.20;;
27977;SDS011;15314;49.248;6.968;2023-11-21T03:47:07;10.30;;;9.60;;
27977;SDS011;15314;49.248;6.968;2023-11-21T03:48:08;10.32;;;9.60;;
27977;SDS011;15314;49.248;6.968;2023-11-21T03:49:08;9.57;;;8.90;;
27977;SDS011;15314;49.248;6.968;2023-11-21T03:50:09;12.00;;;11.00;;
27977;SDS011;15314;49.248;6.968;2023-11-21T03:51:10;11.10;;;10.30;;
27977;SDS011;15314;49.248;6.968;2023-11-21T03:52:11;11.02;;;10.20;;
27977;SDS011;15314;49.248;6.968;2023-11-21T03:53:11;10.60;;;9.90;;
27977;SDS011;15314;49.248;6.968;2023-11-21T03:54:12;10.32;;;9.63;;
27977;SDS011;15314;49.248;6.968;2023-11-21T03:55:14;10.82;;;10.10;;
27977;SDS011;15314;49.248;6.968;2023-11-21T03:56:15;10.32;;;9.52;;
27977;SDS011;15314;49.248;6.968;2023-11-21T03:57:15;9.90;;;9.20;;
27977;SDS011;15314;49.248;6.968;2023-11-21T03:58:16;10.32;;;9.63;;
27977;SDS011;15314;49.248;6.968;2023-11-21T03:59:17;11.18;;;10.07;;
27977;SDS011;15314;49.248;6.968;2023-11-21T04:00:18;10.63;;;9.88;;
27977;SDS011;15314;49.248;6.968;2023-11-21T04:01:20;11.23;;;10.38;;
27977;SDS011;15314;49.248;6.968;2023-11-21T04:02:21;10.30;;;9.50;;
27977;SDS011;15314;49.248;6.968;2023-11-21T04:03:22;9.93;;;9.10;;
27977;SDS011;15314;49.248;6.968;2023-11-21T04:04:23;10.18;;;9.48;;
27977;SDS011;15314;49.248;6.968;2023-11-21T04:05:24;10.55;;;9.85;;
27977;SDS011;15314;49.248;6.968;2023-11-21T04:06:24;10.38;;;9.68;;
27977;SDS011;15314;49.248;6.968;2023-11-21T04:07:25;10.32;;;9.63;;
27977;SDS011;15314;49.248;6.968;2023-11-21T04:08:26;10.82;;;9.93;;
27977;SDS011;15314;49.248;6.968;2023-11-21T04:09:26;10.57;;;9.63;;
27977;SDS011;15314;49.248;6.968;2023-11-21T04:10:28;10.23;;;9.43;;
27977;SDS011;15314;49.248;6.968;2023-11-21T04:11:28;10.68;;;9.93;;
27977;SDS011;15314;49.248;6.968;2023-11-21T04:12:30;10.52;;;9.73;;
27977;SDS011;15314;49.248;6.968;2023-11-21T04:13:30;9.82;;;9.23;;
27977;SDS011;15314;49.248;6.968;2023-11-21T04:14:31;10.80;;;9.95;;
27977;SDS011;15314;49.248;6.968;2023-11-21T04:15:32;10.18;;;9.48;;
27977;SDS011;15314;49.248;6.968;2023-11-21T04:16:33;11.30;;;10.25;;
27977;SDS011;15314;49.248;6.968;2023-11-21T04:17:33;11.43;;;10.35;;
27977;SDS011;15314;49.248;6.968;2023-11-21T04:18:38;10.68;;;9.88;;
27977;SDS011;15314;49.248;6.968;2023-11-21T04:19:38;11.25;;;10.45;;
27977;SDS011;15314;49.248;6.968;2023-11-21T04:20:39;10.98;;;10.00;;
27977;SDS011;15314;49.248;6.968;2023-11-21T04:21:40;10.45;;;9.65;;
27977;SDS011;15314;49.248;6.968;2023-11-21T04:22:43;10.88;;;10.02;;
27977;SDS011;15314;49.248;6.968;2023-11-21T04:23:44;10.00;;;9.15;;
27977;SDS011;15314;49.248;6.968;2023-11-21T04:24:44;11.70;;;10.73;;
27977;SDS011;15314;49.248;6.968;2023-11-21T04:25:45;11.57;;;10.57;;
27977;SDS011;15314;49.248;6.968;2023-11-21T04:26:46;10.93;;;10.02;;
27977;SDS011;15314;49.248;6.968;2023-11-21T04:27:47;12.43;;;10.20;;
27977;SDS011;15314;49.248;6.968;2023-11-21T04:28:48;10.93;;;10.02;;
27977;SDS011;15314;49.248;6.968;2023-11-21T04:29:49;10.95;;;10.05;;
27977;SDS011;15314;49.248;6.968;2023-11-21T04:30:50;11.15;;;10.38;;
27977;SDS011;15314;49.248;6.968;2023-11-21T04:31:51;11.80;;;10.90;;
27977;SDS011;15314;49.248;6.968;2023-11-21T04:32:51;11.20;;;10.45;;
27977;SDS011;15314;49.248;6.968;2023-11-21T04:33:52;11.48;;;10.68;;
27977;SDS011;15314;49.248;6.968;2023-11-21T04:34:53;11.88;;;10.90;;
27977;SDS011;15314;49.248;6.968;2023-11-21T04:35:53;11.38;;;10.57;;
27977;SDS011;15314;49.248;6.968;2023-11-21T04:36:54;11.20;;;10.07;;
27977;SDS011;15314;49.248;6.968;2023-11-21T04:37:55;10.93;;;10.13;;
27977;SDS011;15314;49.248;6.968;2023-11-21T04:38:57;11.05;;;10.35;;
27977;SDS011;15314;49.248;6.968;2023-11-21T04:39:58;12.63;;;11.55;;
27977;SDS011;15314;49.248;6.968;2023-11-21T04:40:59;11.73;;;10.73;;
27977;SDS011;15314;49.248;6.968;2023-11-21T04:41:59;12.30;;;10.45;;
27977;SDS011;15314;49.248;6.968;2023-11-21T04:43:00;10.70;;;9.85;;
27977;SDS011;15314;49.248;6.968;2023-11-21T04:44:01;12.40;;;11.00;;
27977;SDS011;15314;49.248;6.968;2023-11-21T04:45:03;11.63;;;10.48;;
27977;SDS011;15314;49.248;6.968;2023-11-21T04:46:08;13.00;;;10.68;;
27977;SDS011;15314;49.248;6.968;2023-11-21T04:47:09;11.02;;;10.23;;
27977;SDS011;15314;49.248;6.968;2023-11-21T04:48:10;11.68;;;10.73;;
27977;SDS011;15314;49.248;6.968;2023-11-21T04:49:10;12.90;;;11.63;;
27977;SDS011;15314;49.248;6.968;2023-11-21T04:50:11;12.38;;;11.02;;
27977;SDS011;15314;49.248;6.968;2023-11-21T04:51:12;12.50;;;10.15;;
27977;SDS011;15314;49.248;6.968;2023-11-21T04:52:12;11.73;;;10.57;;
27977;SDS011;15314;49.248;6.968;2023-11-21T04:53:13;11.10;;;10.25;;
27977;SDS011;15314;49.248;6.968;2023-11-21T04:54:14;12.00;;;11.07;;
27977;SDS011;15314;49.248;6.968;2023-11-21T04:55:15;12.88;;;10.55;;
27977;SDS011;15314;49.248;6.968;2023-11-21T04:56:15;11.77;;;10.88;;
27977;SDS011;15314;49.248;6.968;2023-11-21T04:57:16;12.45;;;11.23;;
27977;SDS011;15314;49.248;6.968;2023-11-21T04:58:18;12.43;;;11.43;;
27977;SDS011;15314;49.248;6.968;2023-11-21T04:59:20;11.68;;;10.57;;
27977;SDS011;15314;49.248;6.968;2023-11-21T05:00:24;13.82;;;12.38;;
27977;SDS011;15314;49.248;6.968;2023-11-21T05:01:25;11.25;;;10.25;;
27977;SDS011;15314;49.248;6.968;2023-11-21T05:02:26;12.00;;;11.05;;
27977;SDS011;15314;49.248;6.968;2023-11-21T05:03:26;12.75;;;11.70;;
27977;SDS011;15314;49.248;6.968;2023-11-21T05:04:29;12.15;;;11.27;;
27977;SDS011;15314;49.248;6.968;2023-11-21T05:05:30;11.98;;;11.05;;
27977;SDS011;15314;49.248;6.968;2023-11-21T05:06:31;12.65;;;11.65;;
27977;SDS011;15314;49.248;6.968;2023-11-21T05:07:32;12.95;;;12.00;;
27977;SDS011;15314;49.248;6.968;2023-11-21T05:08:35;11.88;;;11.07;;
27977;SDS011;15314;49.248;6.968;2023-11-21T05:09:40;12.02;;;10.93;;
27977;SDS011;15314;49.248;6.968;2023-11-21T05:10:44;12.10;;;11.00;;
27977;SDS011;15314;49.248;6.968;2023-11-21T05:11:44;11.65;;;10.75;;
27977;SDS011;15314;49.248;6.968;2023-11-21T05:12:45;11.18;;;10.38;;
27977;SDS011;15314;49.248;6.968;2023-11-21T05:13:46;11.15;;;10.25;;
27977;SDS011;15314;49.248;6.968;2023-11-21T05:14:47;11.38;;;10.45;;
27977;SDS011;15314;49.248;6.968;2023-11-21T05:15:49;12.88;;;11.88;;
27977;SDS011;15314;49.248;6.968;2023-11-21T05:16:49;12.45;;;11.45;;
27977;SDS011;15314;49.248;6.968;2023-11-21T05:17:51;12.07;;;10.93;;
27977;SDS011;15314;49.248;6.968;2023-11-21T05:18:52;12.02;;;10.68;;
27977;SDS011;15314;49.248;6.968;2023-11-21T05:19:52;10.98;;;10.13;;
27977;SDS011;15314;49.248;6.968;2023-11-21T05:20:53;10.93;;;10.23;;
27977;SDS011;15314;49.248;6.968;2023-11-21T05:21:54;11.43;;;10.38;;
27977;SDS011;15314;49.248;6.968;2023-11-21T05:22:54;10.73;;;9.73;;
27977;SDS011;15314;49.248;6.968;2023-11-21T05:23:55;10.90;;;9.88;;
27977;SDS011;15314;49.248;6.968;2023-11-21T05:24:56;13.88;;;12.52;;
27977;SDS011;15314;49.248;6.968;2023-11-21T05:25:56;13.50;;;12.35;;
27977;SDS011;15314;49.248;6.968;2023-11-21T05:26:57;10.95;;;10.07;;
27977;SDS011;15314;49.248;6.968;2023-11-21T05:27:58;11.60;;;10.60;;
27977;SDS011;15314;49.248;6.968;2023-11-21T05:29:01;11.30;;;10.32;;
27977;SDS011;15314;49.248;6.968;2023-11-21T05:30:02;11.45;;;10.65;;
27977;SDS011;15314;49.248;6.968;2023-11-21T05:31:05;12.07;;;10.98;;
27977;SDS011;15314;49.248;6.968;2023-11-21T05:32:06;13.15;;;11.50;;
27977;SDS011;15314;49.248;6.968;2023-11-21T05:33:06;10.82;;;10.13;;
27977;SDS011;15314;49.248;6.968;2023-11-21T05:34:07;10.93;;;9.93;;
27977;SDS011;15314;49.248;6.968;2023-11-21T05:35:08;10.82;;;10.02;;
27977;SDS011;15314;49.248;6.968;2023-11-21T05:36:27;10.68;;;9.77;;
27977;SDS011;15314;49.248;6.968;2023-11-21T05:37:27;10.48;;;9.68;;
27977;SDS011;15314;49.248;6.968;2023-11-21T05:38:28;10.68;;;9.73;;
27977;SDS011;15314;49.248;6.968;2023-11-21T05:39:29;10.80;;;9.70;;
27977;SDS011;15314;49.248;6.968;2023-11-21T05:40:30;10.45;;;9.45;;
27977;SDS011;15314;49.248;6.968;2023-11-21T05:41:31;10.50;;;9.80;;
27977;SDS011;15314;49.248;6.968;2023-11-21T05:42:34;11.43;;;10.43;;
27977;SDS011;15314;49.248;6.968;2023-11-21T05:43:35;10.40;;;9.60;;
27977;SDS011;15314;49.248;6.968;2023-11-21T05:44:36;10.20;;;9.38;;
27977;SDS011;15314;49.248;6.968;2023-11-21T05:45:37;10.20;;;9.50;;
27977;SDS011;15314;49.248;6.968;2023-11-21T05:46:38;10.50;;;9.70;;
27977;SDS011;15314;49.248;6.968;2023-11-21T05:47:40;10.55;;;9.68;;
27977;SDS011;15314;49.248;6.968;2023-11-21T05:48:42;10.20;;;9.50;;
27977;SDS011;15314;49.248;6.968;2023-11-21T05:49:43;10.38;;;9.65;;
27977;SDS011;15314;49.248;6.968;2023-11-21T05:50:45;10.80;;;10.02;;
27977;SDS011;15314;49.248;6.968;2023-11-21T05:51:45;10.68;;;9.90;;
27977;SDS011;15314;49.248;6.968;2023-11-21T05:52:46;10.75;;;9.75;;
27977;SDS011;15314;49.248;6.968;2023-11-21T05:53:47;9.77;;;9.10;;
27977;SDS011;15314;49.248;6.968;2023-11-21T05:54:48;10.38;;;9.50;;
27977;SDS011;15314;49.248;6.968;2023-11-21T05:55:49;9.70;;;9.00;;
27977;SDS011;15314;49.248;6.968;2023-11-21T05:56:49;10.18;;;9.27;;
27977;SDS011;15314;49.248;6.968;2023-11-21T05:57:50;10.05;;;9.25;;
27977;SDS011;15314;49.248;6.968;2023-11-21T05:58:51;9.25;;;8.75;;
27977;SDS011;15314;49.248;6.968;2023-11-21T05:59:52;9.80;;;8.98;;
27977;SDS011;15314;49.248;6.968;2023-11-21T06:00:53;9.63;;;8.90;;
27977;SDS011;15314;49.248;6.968;2023-11-21T06:01:53;9.38;;;8.60;;
27977;SDS011;15314;49.248;6.968;2023-11-21T06:02:54;9.20;;;8.52;;